Portada
METAR-TAF:

METAR-TAF

Aeroports :

Khon Kaen, Tailàndia

latitud: 16-26N, longitud: 102-50E, altitud: 165 m

Observació

L'informe es va fer fa 12 minuts, a les 01:00 UTC
Vent 4 kt del Sud/Sud-Oest, variant entre Sud/Sud-Est i Oest
Temperatura 30°C
Humitat 59%
Pressió 1009 hPa
Visibilitat: 6000 m

METAR: VTUK 300100Z 20004KT 150V260 6000 NSC 30/21 Q1009 NOSIG

Hora: 08:12 (01:12 UTC)

Pronòstic

L'informe es va fer fa 2 hores i 12 minuts, a les 23:00 UTC
Pronòstic vàlid del 30 a les 00 UTC al 30 a les 24 UTC
Vent 4 kt del Sud/Sud-Oest
Visibilitat: 5000 m
boirina
Evolucionant progressivament
l' 30 a les 04 UTC al 30 a les 06 UTC
Visibilitat: 9000 m

TAF: VTUK 292300Z 3000/3024 20004KT 5000 BR NSC BECMG 3004/3006 9000 NSW

Observacions i pronòstics meteorològics de més de 4000 aeroports (METAR i TAF).

Les estacions disponibles són els punts grocs i vermells al mapa.

Posi el ratolí al punt desitjat per veure el nom de l'estació.

Feu clic per veure les observacions i els pronòstics meteorològics.

Per canviar el mapa: feu clic els botons verds amb una creu de color negre per apropar; al botó verd amb un guió per allunyar la imatge; o en les fletxes verdes per a mapes adjacents.


METAR-TAF: